Medford, WI

12:33 AM CST on December 16, 2017 (GMT -0600)
Taylor County

Weather History for KMDZ - July, 2014

Change the Weather History Date:

Tuesday, July 1, 2014

  Actual Average Record
Temperature  
Mean Temperature 63 °F -  
Max Temperature 69 °F 77 °F 91 °F (2011)
Min Temperature 58 °F 55 °F 39 °F (2015)
Degree Days  
Heating Degree Days 2    
Growing Degree Days 13 (Base 50)    
Moisture  
Dew Point 59 °F    
Average Humidity 85    
Maximum Humidity 96    
Minimum Humidity 76    
Precipitation  
Precipitation 0.61 in - - ()
Sea Level Pressure  
Sea Level Pressure 29.61 in    
Wind  
Wind Speed 10 mph (WSW)    
Max Wind Speed 14 mph    
Max Gust Speed 30 mph    
Visibility 10 miles    
Events Rain    
Averages and records for this station are not official NWS values.
T = Trace of Precipitation, MM = Missing Value Source: NWS Daily Summary

Daily Weather History Graph

Daily Weather History Graph

Search for Another Location

Airport or City:

Trip Planner

Search our weather history database for the weather conditions in past years. The results will help you decide how hot, cold, wet, or windy it might be!

Date:

Astronomy

Jul. 01, 2014 Rise Set
Actual Time 5:17 AM CDT 8:51 PM CDT
Civil Twilight 4:40 AM CDT 9:29 PM CDT
Nautical Twilight 3:51 AM CDT 10:18 PM CDT
Astronomical Twilight 2:46 AM CDT 11:23 PM CDT
Moon 9:38 AM CDT (7/1) 11:02 PM CDT (7/1)
Length of Visible Light 16h 48m
Length of Day
15h 33m
Waxing Crescent, 17% of the Moon is Illuminated
Jul 1
Waxing Crescent
Jul 5
First Quarter
Jul 12
Full
Jul 18
Last Quarter
Jul 26
New

Hourly Weather History & Observations

Time (CDT) Temp. Dew Point Humidity Pressure Visibility Wind Dir Wind Speed Gust Speed Precip Events Conditions
12:15 AM 62.8 °F 56.7 °F 80% 29.55 in 10.0 mi SW 9.2 mph - N/A   Scattered Clouds
12:35 AM 62.1 °F 56.7 °F 82% 29.55 in 10.0 mi SW 10.4 mph 16.1 mph N/A   Scattered Clouds
12:55 AM 61.9 °F 56.5 °F 82% 29.54 in 10.0 mi SW 10.4 mph - N/A   Clear
1:15 AM 62.8 °F 56.3 °F 79% 29.53 in 10.0 mi SW 12.7 mph 18.4 mph N/A   Clear
1:35 AM 63.0 °F 56.3 °F 79% 29.54 in 10.0 mi SSW 11.5 mph 17.3 mph N/A   Clear
1:55 AM 61.9 °F 56.3 °F 82% 29.54 in 10.0 mi SW 12.7 mph 17.3 mph N/A   Clear
2:15 AM 62.1 °F 56.3 °F 81% 29.54 in 10.0 mi SW 10.4 mph 17.3 mph N/A   Clear
2:35 AM 62.1 °F 56.1 °F 81% 29.53 in 10.0 mi SW 13.8 mph 19.6 mph N/A   Clear
2:55 AM 61.9 °F 56.3 °F 82% 29.53 in 10.0 mi SW 11.5 mph 18.4 mph N/A   Clear
3:15 AM 61.2 °F 56.1 °F 83% 29.52 in 10.0 mi SW 12.7 mph - N/A   Clear
3:35 AM 61.0 °F 55.9 °F 83% 29.54 in 10.0 mi SW 13.8 mph 19.6 mph N/A   Scattered Clouds
3:55 AM 60.8 °F 56.3 °F 85% 29.54 in 10.0 mi SW 10.4 mph 17.3 mph N/A   Scattered Clouds
4:15 AM 60.8 °F 56.3 °F 85% 29.54 in 10.0 mi SW 13.8 mph 19.6 mph N/A   Mostly Cloudy
4:35 AM 60.8 °F 55.8 °F 83% 29.54 in 10.0 mi SW 10.4 mph 17.3 mph N/A   Mostly Cloudy
4:55 AM 61.0 °F 55.8 °F 83% 29.54 in 10.0 mi WSW 9.2 mph - N/A   Mostly Cloudy
5:15 AM 61.2 °F 55.6 °F 82% 29.54 in 10.0 mi SW 10.4 mph 16.1 mph N/A   Overcast
5:35 AM 61.3 °F 55.6 °F 81% 29.54 in 10.0 mi WSW 11.5 mph - N/A   Overcast
5:55 AM 61.0 °F 55.6 °F 82% 29.55 in 10.0 mi WSW 8.1 mph 16.1 mph N/A   Mostly Cloudy
6:35 AM 61.0 °F 55.8 °F 83% 29.55 in 10.0 mi SW 9.2 mph - N/A   Scattered Clouds
6:55 AM 61.0 °F 56.3 °F 85% 29.55 in 10.0 mi WSW 5.8 mph - N/A   Overcast
7:15 AM 61.0 °F 56.3 °F 85% 29.56 in 10.0 mi SW 6.9 mph - N/A   Overcast
7:35 AM 61.3 °F 56.5 °F 84% 29.56 in 10.0 mi SW 8.1 mph - N/A   Overcast
7:55 AM 61.7 °F 56.7 °F 84% 29.57 in 10.0 mi SW 9.2 mph - N/A   Overcast
8:15 AM 62.4 °F 57.2 °F 83% 29.58 in 10.0 mi SW 11.5 mph - N/A   Overcast
8:35 AM 62.6 °F 57.4 °F 83% 29.58 in 10.0 mi SW 8.1 mph - N/A   Overcast
8:55 AM 63.1 °F 57.9 °F 83% 29.58 in 10.0 mi SW 6.9 mph - N/A   Overcast
9:15 AM 63.3 °F 57.7 °F 82% 29.59 in 10.0 mi WSW 9.2 mph - N/A   Overcast
9:35 AM 63.5 °F 58.1 °F 83% 29.60 in 10.0 mi SW 9.2 mph - N/A   Overcast
9:55 AM 63.7 °F 58.3 °F 83% 29.61 in 10.0 mi SW 10.4 mph - N/A   Overcast
10:15 AM 63.9 °F 59.0 °F 84% 29.61 in 10.0 mi SW 9.2 mph - N/A   Overcast
10:35 AM 64.0 °F 59.0 °F 84% 29.61 in 10.0 mi SW 10.4 mph 17.3 mph N/A   Overcast
10:55 AM 64.6 °F 59.9 °F 85% 29.62 in 10.0 mi SSW 10.4 mph - N/A   Overcast
11:15 AM 64.8 °F 60.1 °F 85% 29.62 in 10.0 mi SW 10.4 mph - N/A   Overcast
11:35 AM 64.6 °F 59.9 °F 85% 29.62 in 10.0 mi SSW 13.8 mph 19.6 mph N/A   Overcast
11:55 AM 65.3 °F 60.3 °F 84% 29.62 in 10.0 mi SW 11.5 mph 17.3 mph N/A   Overcast
12:15 PM 65.3 °F 61.3 °F 87% 29.62 in 10.0 mi SW 9.2 mph - N/A   Overcast
12:35 PM 66.2 °F 60.4 °F 82% 29.62 in 10.0 mi SW 13.8 mph - N/A   Overcast
12:55 PM 68.7 °F 61.7 °F 78% 29.62 in 10.0 mi SW 10.4 mph 16.1 mph N/A   Overcast
1:15 PM 68.4 °F 60.4 °F 76% 29.62 in 10.0 mi SW 12.7 mph 17.3 mph N/A   Overcast
1:35 PM 66.9 °F 60.6 °F 80% 29.63 in 10.0 mi SW 10.4 mph 16.1 mph N/A Rain Light Rain
2:15 PM 68.5 °F 61.9 °F 79% 29.61 in 10.0 mi SW 9.2 mph - N/A   Overcast
2:35 PM 62.6 °F 60.4 °F 93% 29.63 in 4.0 mi West 13.8 mph 29.9 mph 0.07 in Rain Rain
2:55 PM 63.1 °F 61.2 °F 93% 29.64 in 7.0 mi West 10.4 mph 17.3 mph 0.09 in   Drizzle
3:15 PM 65.8 °F 62.4 °F 89% 29.63 in 10.0 mi West 11.5 mph - N/A Rain Light Rain
3:35 PM 66.6 °F 62.2 °F 86% 29.64 in 10.0 mi WSW 11.5 mph 16.1 mph N/A   Overcast
3:55 PM 66.0 °F 62.4 °F 88% 29.64 in 10.0 mi West 5.8 mph - N/A Rain Light Rain
4:15 PM 68.0 °F 63.3 °F 85% 29.63 in 10.0 mi West 8.1 mph - N/A   Overcast
4:35 PM 66.9 °F 62.6 °F 86% 29.63 in 10.0 mi WSW 3.5 mph - N/A   Overcast
4:55 PM 67.5 °F 62.2 °F 83% 29.63 in 10.0 mi WNW 3.5 mph - N/A Rain Light Rain
5:15 PM 66.6 °F 63.0 °F 88% 29.64 in 10.0 mi SSW 3.5 mph - 0.05 in   Overcast
5:35 PM 68.2 °F 64.4 °F 88% 29.64 in 10.0 mi NW 4.6 mph - 0.15 in   Mostly Cloudy
6:15 PM 66.4 °F 61.3 °F 84% 29.64 in 5.0 mi WSW 9.2 mph 18.4 mph 0.05 in Rain Heavy Rain
6:35 PM 64.4 °F 61.0 °F 89% 29.64 in 10.0 mi SW 8.1 mph - 0.05 in Rain Light Rain
6:55 PM 64.0 °F 60.4 °F 88% 29.64 in 10.0 mi West 6.9 mph - 0.06 in Rain Light Rain
7:15 PM 63.5 °F 59.5 °F 87% 29.64 in 10.0 mi WSW 5.8 mph - N/A   Mostly Cloudy
7:35 PM 63.1 °F 59.4 °F 87% 29.66 in 10.0 mi West 8.1 mph - N/A   Mostly Cloudy
7:55 PM 63.1 °F 60.1 °F 90% 29.66 in 10.0 mi West 4.6 mph - N/A   Overcast
8:15 PM 63.1 °F 60.6 °F 91% 29.66 in 10.0 mi West 4.6 mph - N/A   Overcast
8:35 PM 63.1 °F 60.6 °F 91% 29.66 in 10.0 mi West 4.6 mph - N/A   Overcast
8:55 PM 62.8 °F 60.8 °F 93% 29.66 in 10.0 mi West 5.8 mph - N/A   Overcast
9:15 PM 62.8 °F 59.9 °F 90% 29.67 in 10.0 mi NW 8.1 mph - N/A   Overcast
9:35 PM 61.5 °F 59.9 °F 94% 29.68 in 7.0 mi WNW 6.9 mph - 0.01 in Rain Heavy Rain
9:55 PM 60.3 °F 59.2 °F 96% 29.69 in 2.5 mi NNW 10.4 mph 18.4 mph 0.29 in Rain Heavy Rain
10:15 PM 59.5 °F 58.1 °F 95% 29.70 in 10.0 mi North 6.9 mph - 0.02 in Rain Light Rain
10:35 PM 59.5 °F 57.0 °F 91% 29.70 in 10.0 mi NNW 10.4 mph - 0.02 in   Overcast
10:55 PM 59.2 °F 57.2 °F 93% 29.71 in 10.0 mi NNW 8.1 mph - 0.02 in   Overcast
11:15 PM 59.0 °F 56.3 °F 91% 29.72 in 10.0 mi NNW 8.1 mph - N/A   Overcast
11:35 PM 58.6 °F 56.1 °F 91% 29.72 in 10.0 mi NW 9.2 mph - N/A   Overcast
11:55 PM 58.5 °F 56.5 °F 93% 29.74 in 10.0 mi NW 5.8 mph - N/A   Overcast